sensor_id;sensor_type;location;lat;lon;timestamp;pressure;altitude;pressure_sealevel;temperature;humidity
44044;BME280;29709;52.396;16.796;2022-12-07T00:01:27;101152.66;;;4.18;88.57
44044;BME280;29709;52.396;16.796;2022-12-07T00:04:30;101158.20;;;4.17;88.77
44044;BME280;29709;52.396;16.796;2022-12-07T00:07:33;101154.39;;;4.19;88.76
44044;BME280;29709;52.396;16.796;2022-12-07T00:10:36;101149.95;;;4.18;88.90
44044;BME280;29709;52.396;16.796;2022-12-07T00:13:40;101156.13;;;4.20;88.67
44044;BME280;29709;52.396;16.796;2022-12-07T00:16:44;101149.82;;;4.20;88.65
44044;BME280;29709;52.396;16.796;2022-12-07T00:19:47;101147.72;;;4.23;88.62
44044;BME280;29709;52.396;16.796;2022-12-07T00:22:50;101145.86;;;4.24;88.79
44044;BME280;29709;52.396;16.796;2022-12-07T00:26:22;101147.72;;;4.23;88.67
44044;BME280;29709;52.396;16.796;2022-12-07T00:29:25;101142.80;;;4.28;88.66
44044;BME280;29709;52.396;16.796;2022-12-07T00:32:28;101143.29;;;4.33;88.71
44044;BME280;29709;52.396;16.796;2022-12-07T00:35:32;101143.16;;;4.35;88.58
44044;BME280;29709;52.396;16.796;2022-12-07T00:38:38;101143.81;;;4.39;88.60
44044;BME280;29709;52.396;16.796;2022-12-07T00:41:42;101138.46;;;4.37;88.63
44044;BME280;29709;52.396;16.796;2022-12-07T00:44:47;101134.88;;;4.37;88.58
44044;BME280;29709;52.396;16.796;2022-12-07T00:47:52;101137.97;;;4.32;88.40
44044;BME280;29709;52.396;16.796;2022-12-07T00:51:26;101135.37;;;4.30;88.41
44044;BME280;29709;52.396;16.796;2022-12-07T00:54:29;101127.55;;;4.26;88.71
44044;BME280;29709;52.396;16.796;2022-12-07T00:57:32;101134.85;;;4.25;88.70
44044;BME280;29709;52.396;16.796;2022-12-07T01:00:39;101131.66;;;4.31;88.91
44044;BME280;29709;52.396;16.796;2022-12-07T01:03:43;101129.68;;;4.33;88.81
44044;BME280;29709;52.396;16.796;2022-12-07T01:06:48;101126.37;;;4.41;88.68
44044;BME280;29709;52.396;16.796;2022-12-07T01:09:53;101134.41;;;4.43;88.60
44044;BME280;29709;52.396;16.796;2022-12-07T01:12:58;101128.49;;;4.49;88.46
44044;BME280;29709;52.396;16.796;2022-12-07T01:16:32;101130.57;;;4.45;87.95
44044;BME280;29709;52.396;16.796;2022-12-07T01:19:35;101121.05;;;4.40;88.20
44044;BME280;29709;52.396;16.796;2022-12-07T01:22:40;101125.25;;;4.44;88.83
44044;BME280;29709;52.396;16.796;2022-12-07T01:25:44;101118.34;;;4.51;88.36
44044;BME280;29709;52.396;16.796;2022-12-07T01:28:49;101109.44;;;4.49;88.26
44044;BME280;29709;52.396;16.796;2022-12-07T01:31:54;101121.17;;;4.38;88.44
44044;BME280;29709;52.396;16.796;2022-12-07T01:34:59;101121.05;;;4.40;88.71
44044;BME280;29709;52.396;16.796;2022-12-07T01:38:04;101124.39;;;4.43;88.63
44044;BME280;29709;52.396;16.796;2022-12-07T01:41:39;101124.79;;;4.50;88.88
44044;BME280;29709;52.396;16.796;2022-12-07T01:48:01;101116.85;;;4.58;88.01
44044;BME280;29709;52.396;16.796;2022-12-07T01:51:08;101113.77;;;4.51;88.10
44044;BME280;29709;52.396;16.796;2022-12-07T01:54:13;101104.01;;;4.60;88.05
44044;BME280;29709;52.396;16.796;2022-12-07T01:57:18;101097.05;;;4.56;87.82
44044;BME280;29709;52.396;16.796;2022-12-07T02:00:48;101096.92;;;4.57;87.86
44044;BME280;29709;52.396;16.796;2022-12-07T02:03:52;101097.92;;;4.56;87.64
44044;BME280;29709;52.396;16.796;2022-12-07T02:06:56;101099.56;;;4.59;87.48
44044;BME280;29709;52.396;16.796;2022-12-07T02:13:21;101096.19;;;4.55;87.40
44044;BME280;29709;52.396;16.796;2022-12-07T02:16:38;101093.00;;;4.61;87.39
44044;BME280;29709;52.396;16.796;2022-12-07T02:23:36;101085.70;;;4.73;86.96
44044;BME280;29709;52.396;16.796;2022-12-07T02:30:00;101086.92;;;4.91;86.68
44044;BME280;29709;52.396;16.796;2022-12-07T02:33:41;101085.42;;;4.87;86.59
44044;BME280;29709;52.396;16.796;2022-12-07T02:36:52;101065.75;;;4.84;86.48
44044;BME280;29709;52.396;16.796;2022-12-07T02:40:07;101066.62;;;4.84;86.42
44044;BME280;29709;52.396;16.796;2022-12-07T02:43:18;101073.80;;;4.85;86.67
44044;BME280;29709;52.396;16.796;2022-12-07T02:46:54;101073.06;;;4.83;86.53
44044;BME280;29709;52.396;16.796;2022-12-07T02:49:58;101072.45;;;4.80;86.11
44044;BME280;29709;52.396;16.796;2022-12-07T02:53:02;101078.13;;;4.77;86.18
44044;BME280;29709;52.396;16.796;2022-12-07T03:06:04;101070.83;;;4.55;86.28
44044;BME280;29709;52.396;16.796;2022-12-07T03:09:21;101078.39;;;4.51;86.43
44044;BME280;29709;52.396;16.796;2022-12-07T03:12:26;101075.79;;;4.50;86.34
44044;BME280;29709;52.396;16.796;2022-12-07T03:15:43;101073.07;;;4.50;86.50
44044;BME280;29709;52.396;16.796;2022-12-07T03:18:55;101082.57;;;4.44;86.27
44044;BME280;29709;52.396;16.796;2022-12-07T03:22:03;101078.00;;;4.45;86.21
44044;BME280;29709;52.396;16.796;2022-12-07T03:25:11;101083.96;;;4.50;85.65
44044;BME280;29709;52.396;16.796;2022-12-07T03:28:21;101073.42;;;4.56;85.81
44044;BME280;29709;52.396;16.796;2022-12-07T03:31:31;101070.34;;;4.61;85.76
44044;BME280;29709;52.396;16.796;2022-12-07T03:34:50;101072.82;;;4.64;85.67
44044;BME280;29709;52.396;16.796;2022-12-07T03:37:55;101068.62;;;4.71;85.61
44044;BME280;29709;52.396;16.796;2022-12-07T03:41:12;101066.02;;;4.70;85.21
44044;BME280;29709;52.396;16.796;2022-12-07T03:44:18;101072.94;;;4.74;85.46
44044;BME280;29709;52.396;16.796;2022-12-07T03:51:09;101065.99;;;4.58;85.44
44044;BME280;29709;52.396;16.796;2022-12-07T03:57:30;101072.42;;;4.69;85.65
44044;BME280;29709;52.396;16.796;2022-12-07T04:00:34;101059.20;;;4.75;85.61
44044;BME280;29709;52.396;16.796;2022-12-07T04:04:03;101059.93;;;4.77;85.38
44044;BME280;29709;52.396;16.796;2022-12-07T04:07:06;101054.62;;;4.76;85.19
44044;BME280;29709;52.396;16.796;2022-12-07T04:10:10;101067.36;;;4.75;84.88
44044;BME280;29709;52.396;16.796;2022-12-07T04:13:13;101062.79;;;4.64;84.52
44044;BME280;29709;52.396;16.796;2022-12-07T04:16:16;101054.88;;;4.61;84.97
44044;BME280;29709;52.396;16.796;2022-12-07T04:19:21;101052.51;;;4.57;84.82
44044;BME280;29709;52.396;16.796;2022-12-07T04:22:25;101040.02;;;4.54;85.07
44044;BME280;29709;52.396;16.796;2022-12-07T04:25:28;101039.16;;;4.54;84.93
44044;BME280;29709;52.396;16.796;2022-12-07T04:28:31;101032.72;;;4.55;85.21
44044;BME280;29709;52.396;16.796;2022-12-07T04:31:34;101046.07;;;4.58;85.42
44044;BME280;29709;52.396;16.796;2022-12-07T04:35:03;101045.34;;;4.56;84.95
44044;BME280;29709;52.396;16.796;2022-12-07T04:38:06;101041.14;;;4.52;85.11
44044;BME280;29709;52.396;16.796;2022-12-07T04:41:09;101040.40;;;4.50;85.00
44044;BME280;29709;52.396;16.796;2022-12-07T04:44:13;101034.32;;;4.46;85.11
44044;BME280;29709;52.396;16.796;2022-12-07T04:47:17;101035.09;;;4.48;85.24
44044;BME280;29709;52.396;16.796;2022-12-07T04:50:19;101024.82;;;4.52;85.03
44044;BME280;29709;52.396;16.796;2022-12-07T04:53:22;101023.70;;;4.54;85.10
44044;BME280;29709;52.396;16.796;2022-12-07T04:56:25;101019.97;;;4.55;85.18
44044;BME280;29709;52.396;16.796;2022-12-07T04:59:28;101018.76;;;4.59;85.27
44044;BME280;29709;52.396;16.796;2022-12-07T05:02:31;101009.47;;;4.62;85.01
44044;BME280;29709;52.396;16.796;2022-12-07T05:06:02;101014.65;;;4.65;85.14
44044;BME280;29709;52.396;16.796;2022-12-07T05:09:05;101010.06;;;4.66;84.90
44044;BME280;29709;52.396;16.796;2022-12-07T05:12:08;101005.75;;;4.63;85.08
44044;BME280;29709;52.396;16.796;2022-12-07T05:15:12;101003.03;;;4.63;84.87
44044;BME280;29709;52.396;16.796;2022-12-07T05:18:15;101005.75;;;4.63;84.85
44044;BME280;29709;52.396;16.796;2022-12-07T05:21:18;101006.61;;;4.63;84.95
44044;BME280;29709;52.396;16.796;2022-12-07T05:24:21;101004.37;;;4.69;84.76
44044;BME280;29709;52.396;16.796;2022-12-07T05:27:24;100998.19;;;4.67;84.85
44044;BME280;29709;52.396;16.796;2022-12-07T05:30:27;101003.03;;;4.63;84.49
44044;BME280;29709;52.396;16.796;2022-12-07T05:33:30;100998.08;;;4.57;84.72
44044;BME280;29709;52.396;16.796;2022-12-07T05:36:33;101007.74;;;4.61;84.96
44044;BME280;29709;52.396;16.796;2022-12-07T05:40:03;101013.93;;;4.52;84.95
44044;BME280;29709;52.396;16.796;2022-12-07T05:43:06;101011.55;;;4.47;85.03
44044;BME280;29709;52.396;16.796;2022-12-07T05:46:09;101013.41;;;4.47;85.12
44044;BME280;29709;52.396;16.796;2022-12-07T05:49:12;101008.23;;;4.44;85.02
44044;BME280;29709;52.396;16.796;2022-12-07T05:52:15;100999.59;;;4.39;85.16
44044;BME280;29709;52.396;16.796;2022-12-07T05:55:18;100998.59;;;4.28;84.86
44044;BME280;29709;52.396;16.796;2022-12-07T05:58:21;100999.33;;;4.19;85.01
44044;BME280;29709;52.396;16.796;2022-12-07T06:01:37;100997.95;;;4.14;85.42
44044;BME280;29709;52.396;16.796;2022-12-07T06:05:08;100998.95;;;4.13;85.42
44044;BME280;29709;52.396;16.796;2022-12-07T06:08:16;100993.88;;;4.08;85.47
44044;BME280;29709;52.396;16.796;2022-12-07T06:11:25;100984.86;;;4.08;85.53
44044;BME280;29709;52.396;16.796;2022-12-07T06:14:48;100998.08;;;4.12;86.17
44044;BME280;29709;52.396;16.796;2022-12-07T06:18:26;101002.27;;;4.16;85.85
44044;BME280;29709;52.396;16.796;2022-12-07T06:21:29;100993.25;;;4.16;85.62
44044;BME280;29709;52.396;16.796;2022-12-07T06:24:33;100997.22;;;4.23;85.91
44044;BME280;29709;52.396;16.796;2022-12-07T06:27:36;100998.34;;;4.20;85.75
44044;BME280;29709;52.396;16.796;2022-12-07T06:30:39;100993.37;;;4.25;85.47
44044;BME280;29709;52.396;16.796;2022-12-07T06:33:42;100984.48;;;4.23;85.46
44044;BME280;29709;52.396;16.796;2022-12-07T06:36:45;100977.82;;;4.27;85.25
44044;BME280;29709;52.396;16.796;2022-12-07T06:39:54;100986.84;;;4.28;85.27
44044;BME280;29709;52.396;16.796;2022-12-07T06:42:57;100985.59;;;4.21;85.10
44044;BME280;29709;52.396;16.796;2022-12-07T06:46:27;100989.30;;;4.09;85.08
44044;BME280;29709;52.396;16.796;2022-12-07T06:49:30;100984.86;;;4.08;85.47
44044;BME280;29709;52.396;16.796;2022-12-07T06:52:33;100983.00;;;4.08;85.55
44044;BME280;29709;52.396;16.796;2022-12-07T06:55:36;100986.45;;;4.10;85.28
44044;BME280;29709;52.396;16.796;2022-12-07T06:58:40;100979.03;;;4.12;85.46
44044;BME280;29709;52.396;16.796;2022-12-07T07:01:43;100982.36;;;4.16;85.46
44044;BME280;29709;52.396;16.796;2022-12-07T07:04:46;100969.63;;;4.16;85.65
44044;BME280;29709;52.396;16.796;2022-12-07T07:07:49;100981.37;;;4.17;85.30
44044;BME280;29709;52.396;16.796;2022-12-07T07:10:52;100979.77;;;4.14;85.13
44044;BME280;29709;52.396;16.796;2022-12-07T07:13:55;100979.77;;;4.14;85.38
44044;BME280;29709;52.396;16.796;2022-12-07T07:17:29;100977.79;;;4.05;85.24
44044;BME280;29709;52.396;16.796;2022-12-07T07:20:32;100984.84;;;3.96;85.44
44044;BME280;29709;52.396;16.796;2022-12-07T07:23:35;100977.16;;;3.90;85.64
44044;BME280;29709;52.396;16.796;2022-12-07T07:26:38;100981.21;;;3.85;85.62
44044;BME280;29709;52.396;16.796;2022-12-07T07:29:41;100977.39;;;3.76;85.71
44044;BME280;29709;52.396;16.796;2022-12-07T07:32:44;100963.89;;;3.74;86.16
44044;BME280;29709;52.396;16.796;2022-12-07T07:35:47;100973.31;;;3.82;86.08
44044;BME280;29709;52.396;16.796;2022-12-07T07:38:50;100978.50;;;3.85;86.13
44044;BME280;29709;52.396;16.796;2022-12-07T07:41:53;100963.17;;;3.84;85.91
44044;BME280;29709;52.396;16.796;2022-12-07T07:44:56;100969.48;;;3.84;85.90
44044;BME280;29709;52.396;16.796;2022-12-07T07:47:59;100962.56;;;3.80;85.25
44044;BME280;29709;52.396;16.796;2022-12-07T07:51:27;100974.02;;;3.72;85.25
44044;BME280;29709;52.396;16.796;2022-12-07T07:54:30;100964.27;;;3.70;85.18
44044;BME280;29709;52.396;16.796;2022-12-07T07:57:33;100964.27;;;3.70;85.04
44044;BME280;29709;52.396;16.796;2022-12-07T08:00:36;100963.89;;;3.74;85.06
44044;BME280;29709;52.396;16.796;2022-12-07T08:03:39;100961.45;;;3.83;85.28
44044;BME280;29709;52.396;16.796;2022-12-07T08:06:42;100954.16;;;3.94;85.36
44044;BME280;29709;52.396;16.796;2022-12-07T08:09:45;100967.16;;;4.02;84.99
44044;BME280;29709;52.396;16.796;2022-12-07T08:12:49;100952.69;;;4.01;84.84
44044;BME280;29709;52.396;16.796;2022-12-07T08:16:32;100955.02;;;3.95;84.59
44044;BME280;29709;52.396;16.796;2022-12-07T08:19:35;100949.84;;;3.92;84.61
44044;BME280;29709;52.396;16.796;2022-12-07T08:22:38;100954.92;;;3.96;84.18
44044;BME280;29709;52.396;16.796;2022-12-07T08:25:41;100951.70;;;3.91;84.29
44044;BME280;29709;52.396;16.796;2022-12-07T08:28:44;100954.41;;;3.91;84.30
44044;BME280;29709;52.396;16.796;2022-12-07T08:31:47;100956.26;;;3.80;84.17
44044;BME280;29709;52.396;16.796;2022-12-07T08:34:51;100946.85;;;3.84;84.57
44044;BME280;29709;52.396;16.796;2022-12-07T08:37:55;100943.27;;;3.83;84.31
44044;BME280;29709;52.396;16.796;2022-12-07T08:41:00;100950.55;;;3.71;83.76
44044;BME280;29709;52.396;16.796;2022-12-07T08:44:03;100952.78;;;3.66;84.13
44044;BME280;29709;52.396;16.796;2022-12-07T08:47:32;100946.95;;;3.60;84.14
44044;BME280;29709;52.396;16.796;2022-12-07T08:50:36;100938.52;;;3.52;84.12
44044;BME280;29709;52.396;16.796;2022-12-07T08:53:40;100935.52;;;3.43;84.26
44044;BME280;29709;52.396;16.796;2022-12-07T08:56:46;100927.35;;;3.32;84.73
44044;BME280;29709;52.396;16.796;2022-12-07T08:59:50;100928.87;;;3.36;84.77
44044;BME280;29709;52.396;16.796;2022-12-07T09:02:53;100923.43;;;3.36;84.66
44044;BME280;29709;52.396;16.796;2022-12-07T09:05:57;100926.02;;;3.38;84.96
44044;BME280;29709;52.396;16.796;2022-12-07T09:09:02;100913.68;;;3.34;85.16
44044;BME280;29709;52.396;16.796;2022-12-07T09:12:05;100907.35;;;3.33;85.07
44044;BME280;29709;52.396;16.796;2022-12-07T09:15:34;100912.29;;;3.28;85.11
44044;BME280;29709;52.396;16.796;2022-12-07T09:18:37;100905.70;;;3.19;85.79
44044;BME280;29709;52.396;16.796;2022-12-07T09:21:41;100902.87;;;3.21;85.68
44044;BME280;29709;52.396;16.796;2022-12-07T09:24:44;100894.96;;;3.18;85.72
44044;BME280;29709;52.396;16.796;2022-12-07T09:27:48;100890.41;;;3.18;85.86
44044;BME280;29709;52.396;16.796;2022-12-07T09:30:51;100894.10;;;3.17;86.20
44044;BME280;29709;52.396;16.796;2022-12-07T09:33:56;100888.67;;;3.17;86.11
44044;BME280;29709;52.396;16.796;2022-12-07T09:37:00;100892.13;;;3.19;86.41
44044;BME280;29709;52.396;16.796;2022-12-07T09:40:06;100887.68;;;3.18;86.10
44044;BME280;29709;52.396;16.796;2022-12-07T09:43:38;100871.63;;;3.15;86.52
44044;BME280;29709;52.396;16.796;2022-12-07T09:46:43;100879.99;;;3.12;86.57
44044;BME280;29709;52.396;16.796;2022-12-07T09:49:47;100876.08;;;3.16;86.79
44044;BME280;29709;52.396;16.796;2022-12-07T09:52:51;100874.82;;;3.09;86.44
44044;BME280;29709;52.396;16.796;2022-12-07T09:55:56;100868.77;;;3.06;86.89
44044;BME280;29709;52.396;16.796;2022-12-07T09:59:01;100865.07;;;3.07;86.84
44044;BME280;29709;52.396;16.796;2022-12-07T10:02:21;100860.75;;;3.04;87.00
44044;BME280;29709;52.396;16.796;2022-12-07T10:05:49;100865.77;;;2.98;87.03
44044;BME280;29709;52.396;16.796;2022-12-07T10:08:53;100850.35;;;2.98;87.44
44044;BME280;29709;52.396;16.796;2022-12-07T10:12:05;100849.88;;;3.04;87.28
44044;BME280;29709;52.396;16.796;2022-12-07T10:15:09;100844.08;;;3.09;87.34
44044;BME280;29709;52.396;16.796;2022-12-07T10:21:29;100833.24;;;3.20;87.07
44044;BME280;29709;52.396;16.796;2022-12-07T10:28:17;100844.67;;;3.01;86.66
44044;BME280;29709;52.396;16.796;2022-12-07T10:31:22;100839.73;;;2.95;86.64
44044;BME280;29709;52.396;16.796;2022-12-07T10:34:31;100836.28;;;2.93;86.75
44044;BME280;29709;52.396;16.796;2022-12-07T10:37:40;100839.98;;;2.92;87.09
44044;BME280;29709;52.396;16.796;2022-12-07T10:40:43;100826.89;;;2.97;87.30
44044;BME280;29709;52.396;16.796;2022-12-07T10:44:20;100831.01;;;3.03;87.23
44044;BME280;29709;52.396;16.796;2022-12-07T10:47:33;100815.20;;;3.08;86.95
44044;BME280;29709;52.396;16.796;2022-12-07T10:50:47;100816.67;;;3.12;87.13
44044;BME280;29709;52.396;16.796;2022-12-07T10:54:03;100812.02;;;3.14;86.97
44044;BME280;29709;52.396;16.796;2022-12-07T10:57:45;100807.45;;;3.14;87.41
44044;BME280;29709;52.396;16.796;2022-12-07T11:01:01;100803.62;;;3.17;87.14
44044;BME280;29709;52.396;16.796;2022-12-07T11:14:05;100787.46;;;3.15;87.49
44044;BME280;29709;52.396;16.796;2022-12-07T11:17:11;100783.62;;;3.18;87.39
44044;BME280;29709;52.396;16.796;2022-12-07T11:33:27;100775.04;;;2.89;87.45
44044;BME280;29709;52.396;16.796;2022-12-07T11:36:41;100759.02;;;2.97;87.78
44044;BME280;29709;52.396;16.796;2022-12-07T11:40:12;100762.87;;;3.06;87.69
44044;BME280;29709;52.396;16.796;2022-12-07T11:46:19;100761.90;;;3.29;87.93
44044;BME280;29709;52.396;16.796;2022-12-07T11:52:58;100743.52;;;3.44;87.44
44044;BME280;29709;52.396;16.796;2022-12-07T11:55:58;100744.73;;;3.51;87.11
44044;BME280;29709;52.396;16.796;2022-12-07T11:59:13;100748.31;;;3.52;87.59
44044;BME280;29709;52.396;16.796;2022-12-07T12:02:27;100735.57;;;3.63;87.65
44044;BME280;29709;52.396;16.796;2022-12-07T12:05:34;100739.39;;;3.72;87.40
44044;BME280;29709;52.396;16.796;2022-12-07T12:12:28;100732.08;;;3.84;87.38
44044;BME280;29709;52.396;16.796;2022-12-07T12:15:44;100733.71;;;3.86;87.45
44044;BME280;29709;52.396;16.796;2022-12-07T12:22:15;100737.49;;;3.95;87.36
44044;BME280;29709;52.396;16.796;2022-12-07T12:25:29;100730.19;;;4.07;86.87
44044;BME280;29709;52.396;16.796;2022-12-07T12:38:30;100722.63;;;4.10;87.12
44044;BME280;29709;52.396;16.796;2022-12-07T12:45:27;100723.62;;;4.09;86.58
44044;BME280;29709;52.396;16.796;2022-12-07T12:51:40;100719.41;;;4.05;87.01
44044;BME280;29709;52.396;16.796;2022-12-07T13:07:51;100722.57;;;3.89;87.27
44044;BME280;29709;52.396;16.796;2022-12-07T13:20:52;100732.69;;;3.98;87.19
44044;BME280;29709;52.396;16.796;2022-12-07T13:23:59;100742.56;;;3.99;87.29
44044;BME280;29709;52.396;16.796;2022-12-07T13:27:07;100745.91;;;3.92;86.78
44044;BME280;29709;52.396;16.796;2022-12-07T13:30:17;100742.33;;;3.91;86.90
44044;BME280;29709;52.396;16.796;2022-12-07T13:33:21;100747.40;;;3.85;86.65
44044;BME280;29709;52.396;16.796;2022-12-07T13:36:51;100758.66;;;3.80;87.01
44044;BME280;29709;52.396;16.796;2022-12-07T13:39:57;100757.55;;;3.83;87.38
44044;BME280;29709;52.396;16.796;2022-12-07T13:43:11;100755.92;;;3.91;87.17
44044;BME280;29709;52.396;16.796;2022-12-07T13:46:13;100762.83;;;3.95;87.11
44044;BME280;29709;52.396;16.796;2022-12-07T13:49:25;100772.34;;;4.01;86.65
44044;BME280;29709;52.396;16.796;2022-12-07T13:52:30;100772.81;;;4.06;86.84
44044;BME280;29709;52.396;16.796;2022-12-07T13:55:33;100770.35;;;4.03;86.41
44044;BME280;29709;52.396;16.796;2022-12-07T13:59:02;100786.81;;;4.01;86.25
44044;BME280;29709;52.396;16.796;2022-12-07T14:05:28;100785.81;;;4.02;85.06
44044;BME280;29709;52.396;16.796;2022-12-07T14:08:31;100778.78;;;4.00;85.47
44044;BME280;29709;52.396;16.796;2022-12-07T14:11:35;100793.61;;;4.07;85.34
44044;BME280;29709;52.396;16.796;2022-12-07T14:14:38;100790.39;;;4.02;84.46
44044;BME280;29709;52.396;16.796;2022-12-07T14:21:25;100802.03;;;3.82;83.59
44044;BME280;29709;52.396;16.796;2022-12-07T14:24:29;100813.42;;;3.75;84.00
44044;BME280;29709;52.396;16.796;2022-12-07T14:27:33;100798.94;;;3.75;84.16
44044;BME280;29709;52.396;16.796;2022-12-07T14:30:36;100805.01;;;3.79;84.37
44044;BME280;29709;52.396;16.796;2022-12-07T14:33:40;100796.48;;;3.72;83.58
44044;BME280;29709;52.396;16.796;2022-12-07T14:36:43;100819.21;;;3.71;84.02
44044;BME280;29709;52.396;16.796;2022-12-07T14:39:46;100817.62;;;3.57;83.92
44044;BME280;29709;52.396;16.796;2022-12-07T14:43:00;100811.31;;;3.34;84.65
44044;BME280;29709;52.396;16.796;2022-12-07T14:46:29;100830.63;;;3.07;85.72
44044;BME280;29709;52.396;16.796;2022-12-07T14:49:32;100828.38;;;3.01;85.78
44044;BME280;29709;52.396;16.796;2022-12-07T14:52:35;100823.45;;;2.95;86.04
44044;BME280;29709;52.396;16.796;2022-12-07T14:55:38;100828.72;;;2.85;86.09
44044;BME280;29709;52.396;16.796;2022-12-07T15:00:31;100826.34;;;2.81;85.69
44044;BME280;29709;52.396;16.796;2022-12-07T15:03:35;100829.54;;;2.75;85.73
44044;BME280;29709;52.396;16.796;2022-12-07T15:06:40;100832.26;;;2.75;85.63
44044;BME280;29709;52.396;16.796;2022-12-07T15:09:47;100833.24;;;2.74;85.62
44044;BME280;29709;52.396;16.796;2022-12-07T15:12:50;100833.74;;;2.79;85.37
44044;BME280;29709;52.396;16.796;2022-12-07T15:15:54;100832.26;;;2.75;85.32
44044;BME280;29709;52.396;16.796;2022-12-07T15:18:57;100834.55;;;2.68;85.15
44044;BME280;29709;52.396;16.796;2022-12-07T15:22:00;100833.95;;;2.65;85.30
44044;BME280;29709;52.396;16.796;2022-12-07T15:25:04;100842.95;;;2.65;85.03
44044;BME280;29709;52.396;16.796;2022-12-07T15:28:34;100843.88;;;2.53;85.39
44044;BME280;29709;52.396;16.796;2022-12-07T15:31:37;100830.52;;;2.50;85.39
44044;BME280;29709;52.396;16.796;2022-12-07T15:34:40;100853.34;;;2.47;85.30
44044;BME280;29709;52.396;16.796;2022-12-07T15:37:43;100849.12;;;2.43;85.27
44044;BME280;29709;52.396;16.796;2022-12-07T15:40:47;100850.98;;;2.43;85.46
44044;BME280;29709;52.396;16.796;2022-12-07T15:43:50;100845.32;;;2.46;85.52
44044;BME280;29709;52.396;16.796;2022-12-07T15:47:05;100837.59;;;2.52;85.35
44044;BME280;29709;52.396;16.796;2022-12-07T15:50:11;100833.77;;;2.55;85.42
44044;BME280;29709;52.396;16.796;2022-12-07T15:53:40;100839.94;;;2.57;85.38
44044;BME280;29709;52.396;16.796;2022-12-07T15:56:43;100840.68;;;2.59;85.29
44044;BME280;29709;52.396;16.796;2022-12-07T15:59:45;100838.74;;;2.61;84.94
44044;BME280;29709;52.396;16.796;2022-12-07T16:02:48;100843.31;;;2.60;84.82
44044;BME280;29709;52.396;16.796;2022-12-07T16:05:52;100842.03;;;2.53;84.72
44044;BME280;29709;52.396;16.796;2022-12-07T16:08:55;100853.13;;;2.50;84.58
44044;BME280;29709;52.396;16.796;2022-12-07T16:11:58;100846.30;;;2.45;84.95
44044;BME280;29709;52.396;16.796;2022-12-07T16:15:01;100852.47;;;2.47;84.86
44044;BME280;29709;52.396;16.796;2022-12-07T16:18:04;100855.92;;;2.49;84.96
44044;BME280;29709;52.396;16.796;2022-12-07T16:21:07;100843.82;;;2.42;84.66
44044;BME280;29709;52.396;16.796;2022-12-07T16:24:37;100851.42;;;2.37;85.11
44044;BME280;29709;52.396;16.796;2022-12-07T16:27:40;100847.84;;;2.36;85.08
44044;BME280;29709;52.396;16.796;2022-12-07T16:30:43;100846.98;;;2.36;85.08
44044;BME280;29709;52.396;16.796;2022-12-07T16:33:48;100847.23;;;2.33;85.09
44044;BME280;29709;52.396;16.796;2022-12-07T16:36:51;100844.63;;;2.31;84.96
44044;BME280;29709;52.396;16.796;2022-12-07T16:39:54;100840.06;;;2.31;85.06
44044;BME280;29709;52.396;16.796;2022-12-07T16:42:57;100850.44;;;2.38;84.96
44044;BME280;29709;52.396;16.796;2022-12-07T16:46:01;100846.53;;;2.42;84.80
44044;BME280;29709;52.396;16.796;2022-12-07T16:49:04;100841.23;;;2.40;84.80
44044;BME280;29709;52.396;16.796;2022-12-07T16:52:07;100842.73;;;2.44;84.47
44044;BME280;29709;52.396;16.796;2022-12-07T16:55:44;100851.19;;;2.40;84.65
44044;BME280;29709;52.396;16.796;2022-12-07T16:58:48;100836.44;;;2.44;84.67
44044;BME280;29709;52.396;16.796;2022-12-07T17:01:52;100835.09;;;2.49;84.64
44044;BME280;29709;52.396;16.796;2022-12-07T17:04:55;100826.08;;;2.49;84.46
44044;BME280;29709;52.396;16.796;2022-12-07T17:07:58;100826.20;;;2.47;84.61
44044;BME280;29709;52.396;16.796;2022-12-07T17:11:01;100824.89;;;2.53;84.57
44044;BME280;29709;52.396;16.796;2022-12-07T17:14:09;100819.34;;;2.54;84.40
44044;BME280;29709;52.396;16.796;2022-12-07T17:17:56;100827.36;;;2.56;84.48
44044;BME280;29709;52.396;16.796;2022-12-07T17:21:07;100826.13;;;2.60;84.48
44044;BME280;29709;52.396;16.796;2022-12-07T17:24:13;100827.65;;;2.64;84.31
44044;BME280;29709;52.396;16.796;2022-12-07T17:27:16;100825.18;;;2.61;83.96
44044;BME280;29709;52.396;16.796;2022-12-07T17:30:19;100825.62;;;2.55;84.13
44044;BME280;29709;52.396;16.796;2022-12-07T17:33:22;100826.63;;;2.54;84.23
44044;BME280;29709;52.396;16.796;2022-12-07T17:36:28;100830.45;;;2.51;84.37
44044;BME280;29709;52.396;16.796;2022-12-07T17:39:56;100829.45;;;2.52;84.35
44044;BME280;29709;52.396;16.796;2022-12-07T17:42:59;100830.45;;;2.51;84.59
44044;BME280;29709;52.396;16.796;2022-12-07T17:46:09;100830.82;;;2.58;84.56
44044;BME280;29709;52.396;16.796;2022-12-07T17:49:12;100838.84;;;2.59;84.19
44044;BME280;29709;52.396;16.796;2022-12-07T17:52:15;100837.52;;;2.65;84.19
44044;BME280;29709;52.396;16.796;2022-12-07T17:55:30;100839.99;;;2.68;83.92
44044;BME280;29709;52.396;16.796;2022-12-07T17:58:33;100836.90;;;2.62;83.56
44044;BME280;29709;52.396;16.796;2022-12-07T18:01:36;100835.51;;;2.56;83.90
44044;BME280;29709;52.396;16.796;2022-12-07T18:05:06;100837.92;;;2.48;83.97
44044;BME280;29709;52.396;16.796;2022-12-07T18:08:09;100833.48;;;2.47;84.18
44044;BME280;29709;52.396;16.796;2022-12-07T18:11:12;100825.46;;;2.45;83.90
44044;BME280;29709;52.396;16.796;2022-12-07T18:14:15;100828.17;;;2.45;84.01
44044;BME280;29709;52.396;16.796;2022-12-07T18:17:18;100834.34;;;2.47;84.13
44044;BME280;29709;52.396;16.796;2022-12-07T18:20:21;100836.08;;;2.48;84.09
44044;BME280;29709;52.396;16.796;2022-12-07T18:23:25;100839.89;;;2.46;83.88
44044;BME280;29709;52.396;16.796;2022-12-07T18:26:29;100831.02;;;2.44;84.14